地図

経路データ

SID SEASON NUMBER BASIN SUBBASIN NAME ISO_TIME NATURE LAT LON WMO_WIND WMO_PRES WMO_AGENCY TRACK_TYPE DIST2LAND LANDFALL IFLAG USA_AGENCY USA_ATCF_ID USA_LAT USA_LON USA_RECORD USA_STATUS USA_WIND USA_PRES USA_SSHS USA_R34_NE USA_R34_SE USA_R34_SW USA_R34_NW USA_R50_NE USA_R50_SE USA_R50_SW USA_R50_NW USA_R64_NE USA_R64_SE USA_R64_SW USA_R64_NW USA_POCI USA_ROCI USA_RMW USA_EYE TOKYO_LAT TOKYO_LON TOKYO_GRADE TOKYO_WIND TOKYO_PRES TOKYO_R50_DIR TOKYO_R50_LONG TOKYO_R50_SHORT TOKYO_R30_DIR TOKYO_R30_LONG TOKYO_R30_SHORT TOKYO_LAND CMA_LAT CMA_LON CMA_CAT CMA_WIND CMA_PRES HKO_LAT HKO_LON HKO_CAT HKO_WIND HKO_PRES NEWDELHI_LAT NEWDELHI_LON NEWDELHI_GRADE NEWDELHI_WIND NEWDELHI_PRES NEWDELHI_CI NEWDELHI_DP NEWDELHI_POCI REUNION_LAT REUNION_LON REUNION_TYPE REUNION_WIND REUNION_PRES REUNION_TNUM REUNION_CI REUNION_RMW REUNION_R34_NE REUNION_R34_SE REUNION_R34_SW REUNION_R34_NW REUNION_R50_NE REUNION_R50_SE REUNION_R50_SW REUNION_R50_NW REUNION_R64_NE REUNION_R64_SE REUNION_R64_SW REUNION_R64_NW BOM_LAT BOM_LON BOM_TYPE BOM_WIND BOM_PRES BOM_TNUM BOM_CI BOM_RMW BOM_R34_NE BOM_R34_SE BOM_R34_SW BOM_R34_NW BOM_R50_NE BOM_R50_SE BOM_R50_SW BOM_R50_NW BOM_R64_NE BOM_R64_SE BOM_R64_SW BOM_R64_NW BOM_ROCI BOM_POCI BOM_EYE BOM_POS_METHOD BOM_PRES_METHOD NADI_LAT NADI_LON NADI_CAT NADI_WIND NADI_PRES WELLINGTON_LAT WELLINGTON_LON WELLINGTON_WIND WELLINGTON_PRES DS824_LAT DS824_LON DS824_STAGE DS824_WIND DS824_PRES TD9636_LAT TD9636_LON TD9636_STAGE TD9636_WIND TD9636_PRES TD9635_LAT TD9635_LON TD9635_WIND TD9635_PRES TD9635_ROCI NEUMANN_LAT NEUMANN_LON NEUMANN_CLASS NEUMANN_WIND NEUMANN_PRES MLC_LAT MLC_LON MLC_CLASS MLC_WIND MLC_PRES USA_GUST BOM_GUST BOM_GUST_PER REUNION_GUST REUNION_GUST_PER USA_SEAHGT USA_SEARAD_NE USA_SEARAD_SE USA_SEARAD_SW USA_SEARAD_NW STORM_SPEED STORM_DIR
1872021S18054 1872 1 SI MM NOT_NAMED 1872-01-21 06:00:00 NR -18.0000 53.6000 reunion main 379 379 _____O________ -1 -18.0000 53.6000 99 9.90000 1 260
1872021S18054 1872 1 SI MM NOT_NAMED 1872-01-21 09:00:00 NR -18.0093 53.5388 main 384 384 _____P________ -1 -18.0093 53.5388 99 1 259
1872021S18054 1872 1 SI MM NOT_NAMED 1872-01-21 12:00:00 NR -18.0237 53.4715 main 384 384 _____P________ -1 -18.0237 53.4715 99 1 254
1872021S18054 1872 1 SI MM NOT_NAMED 1872-01-21 15:00:00 NR -18.0482 53.3922 main 390 380 _____P________ -1 -18.0482 53.3922 99 2 249
1872021S18054 1872 1 SI MM NOT_NAMED 1872-01-21 18:00:00 NR -18.0880 53.2946 main 386 386 _____P________ -1 -18.0880 53.2946 99 2 244
1872021S18054 1872 1 SI MM NOT_NAMED 1872-01-21 21:00:00 NR -18.1480 53.1728 main 388 373 _____P________ -1 -18.1480 53.1728 99 3 241
1872021S18054 1872 1 SI MM NOT_NAMED 1872-01-22 00:00:00 NR -18.2334 53.0206 main 373 355 _____P________ -1 -18.2334 53.0206 99 4 238
1872021S18054 1872 1 SI MM NOT_NAMED 1872-01-22 03:00:00 NR -18.3490 52.8317 main 355 339 _____P________ -1 -18.3490 52.8317 99 5 236
1872021S18054 1872 1 SI MM NOT_NAMED 1872-01-22 06:00:00 NR -18.5000 52.6000 reunion main 339 310 _____O________ -1 -18.5000 52.6000 99 9.90000 6 235
1872021S18054 1872 1 SI MM NOT_NAMED 1872-01-22 09:00:00 NR -18.6897 52.3220 main 310 285 _____P________ -1 -18.6897 52.3220 99 7 234
1872021S18054 1872 1 SI MM NOT_NAMED 1872-01-22 12:00:00 NR -18.9154 52.0066 main 285 262 _____P________ -1 -18.9154 52.0066 99 8 232
1872021S18054 1872 1 SI MM NOT_NAMED 1872-01-22 15:00:00 NR -19.1729 51.6657 main 266 234 _____P________ -1 -19.1729 51.6657 99 9 230
1872021S18054 1872 1 SI MM NOT_NAMED 1872-01-22 18:00:00 NR -19.4583 51.3112 main 237 214 _____P________ -1 -19.4583 51.3112 99 9 228
1872021S18054 1872 1 SI MM NOT_NAMED 1872-01-22 21:00:00 NR -19.7676 50.9552 main 218 188 _____P________ -1 -19.7676 50.9552 99 9 226
1872021S18054 1872 1 SI MM NOT_NAMED 1872-01-23 00:00:00 NR -20.0968 50.6098 main 188 162 _____P________ -1 -20.0968 50.6098 99 9 223
1872021S18054 1872 1 SI MM NOT_NAMED 1872-01-23 03:00:00 NR -20.4421 50.2872 main 162 146 _____P________ -1 -20.4421 50.2872 99 9 219
1872021S18054 1872 1 SI MM NOT_NAMED 1872-01-23 06:00:00 NR -20.8000 50.0000 reunion main 151 141 _____O________ -1 -20.8000 50.0000 99 9.90000 9 215
1872021S18054 1872 1 SI MM NOT_NAMED 1872-01-23 09:00:00 NR -21.1477 49.7530 main 145 124 _____P________ -1 -21.1477 49.7530 99 8 211
1872021S18054 1872 1 SI MM NOT_NAMED 1872-01-23 12:00:00 NR -21.5123 49.5331 main 124 118 _____P________ -1 -21.5123 49.5331 99 8 207
1872021S18054 1872 1 SI MM NOT_NAMED 1872-01-23 15:00:00 NR -21.8911 49.3423 main 114 108 _____P________ -1 -21.8911 49.3423 99 8 203
1872021S18054 1872 1 SI MM NOT_NAMED 1872-01-23 18:00:00 NR -22.2812 49.1826 main 117 112 _____P________ -1 -22.2812 49.1826 99 8 198
1872021S18054 1872 1 SI MM NOT_NAMED 1872-01-23 21:00:00 NR -22.6799 49.0562 main 125 115 _____P________ -1 -22.6799 49.0562 99 8 194
1872021S18054 1872 1 SI MM NOT_NAMED 1872-01-24 00:00:00 NR -23.0844 48.9655 main 124 117 _____P________ -1 -23.0844 48.9655 99 8 189
1872021S18054 1872 1 SI MM NOT_NAMED 1872-01-24 03:00:00 NR -23.4921 48.9126 main 122 122 _____P________ -1 -23.4921 48.9126 99 8 184
1872021S18054 1872 1 SI MM NOT_NAMED 1872-01-24 06:00:00 NR -23.9000 48.9000 reunion main 134 134 _____O________ -1 -23.9000 48.9000 99 9.90000 8 182
1872021S18054 1872 1 SI MM NOT_NAMED 1872-01-24 09:00:00 NR -24.3140 48.9049 main 145 145 _____P________ -1 -24.3140 48.9049 99 8 177
1872021S18054 1872 1 SI MM NOT_NAMED 1872-01-24 12:00:00 NR -24.7326 48.9520 main 170 170 _____P________ -1 -24.7326 48.9520 99 9 172
1872021S18054 1872 1 SI MM NOT_NAMED 1872-01-24 15:00:00 NR -25.1514 49.0374 main 188 188 _____P________ -1 -25.1514 49.0374 99 9 167
1872021S18054 1872 1 SI MM NOT_NAMED 1872-01-24 18:00:00 NR -25.5663 49.1573 main 221 221 _____P________ -1 -25.5663 49.1573 99 9 163
1872021S18054 1872 1 SI MM NOT_NAMED 1872-01-24 21:00:00 NR -25.9730 49.3076 main 247 247 _____P________ -1 -25.9730 49.3076 99 9 160
1872021S18054 1872 1 SI MM NOT_NAMED 1872-01-25 00:00:00 NR -26.3670 49.4842 main 286 286 _____P________ -1 -26.3670 49.4842 99 8 156
1872021S18054 1872 1 SI MM NOT_NAMED 1872-01-25 03:00:00 NR -26.7441 49.6831 main 321 321 _____P________ -1 -26.7441 49.6831 99 8 153
1872021S18054 1872 1 SI MM NOT_NAMED 1872-01-25 06:00:00 NR -27.1000 49.9000 reunion main 364 364 _____O________ -1 -27.1000 49.9000 99 9.90000 8 150
1872021S18054 1872 1 SI MM NOT_NAMED 1872-01-25 09:00:00 NR -27.4316 50.1310 main 401 401 _____P________ -1 -27.4316 50.1310 99 8 147
1872021S18054 1872 1 SI MM NOT_NAMED 1872-01-25 12:00:00 NR -27.7409 50.3741 main 445 445 _____P________ -1 -27.7409 50.3741 99 7 144
1872021S18054 1872 1 SI MM NOT_NAMED 1872-01-25 15:00:00 NR -28.0309 50.6277 main 482 482 _____P________ -1 -28.0309 50.6277 99 7 141
1872021S18054 1872 1 SI MM NOT_NAMED 1872-01-25 18:00:00 NR -28.3047 50.8904 main 526 526 _____P________ -1 -28.3047 50.8904 99 7 139
1872021S18054 1872 1 SI MM NOT_NAMED 1872-01-25 21:00:00 NR -28.5653 51.1605 main 570 570 _____P________ -1 -28.5653 51.1605 99 7 137
1872021S18054 1872 1 SI MM NOT_NAMED 1872-01-26 00:00:00 NR -28.8161 51.4365 main 600 600 _____P________ -1 -28.8161 51.4365 99 7 135
1872021S18054 1872 1 SI MM NOT_NAMED 1872-01-26 03:00:00 NR -29.0599 51.7168 main 644 644 _____P________ -1 -29.0599 51.7168 99 7 134
1872021S18054 1872 1 SI MM NOT_NAMED 1872-01-26 06:00:00 NR -29.3000 52.0000 reunion main 681 _____O________ -1 -29.3000 52.0000 99 9.90000 7 134

IBTrACS Databaseについて

本データベースは、米国NOAAが公開する1842年以降の世界の熱帯低気圧のベストトラックデータアーカイブInternational Best Track Archive for Climate Stewardship (IBTrACS)を、ウェブで閲覧しやすい形式に変換したものです。

最終更新日:2021-11-26